createdAt,value
2018-05-21T00:02:27.895Z,2.43
2018-05-21T00:04:57.465Z,2.40
2018-05-21T00:07:27.069Z,2.62
2018-05-21T00:09:56.637Z,2.80
2018-05-21T00:12:26.249Z,2.30
2018-05-21T00:15:11.345Z,2.37
2018-05-21T00:17:42.427Z,2.30
2018-05-21T00:20:12.784Z,2.40
2018-05-21T00:22:43.106Z,2.27
2018-05-21T00:25:13.496Z,2.27
2018-05-21T00:27:43.801Z,2.10
2018-05-21T00:30:14.936Z,2.10
2018-05-21T00:32:45.253Z,2.10
2018-05-21T00:35:14.815Z,2.03
2018-05-21T00:37:44.395Z,2.10
2018-05-21T00:40:13.973Z,1.97
2018-05-21T00:42:43.613Z,2.30
2018-05-21T00:45:13.210Z,1.67
2018-05-21T00:47:42.824Z,1.90
2018-05-21T00:50:12.378Z,2.03
2018-05-21T00:52:41.945Z,1.90
2018-05-21T00:55:37.286Z,1.90
2018-05-21T00:58:09.791Z,1.70
2018-05-21T01:00:40.129Z,1.60
2018-05-21T01:05:39.997Z,1.53
2018-05-21T01:08:09.598Z,1.90
2018-05-21T01:10:39.941Z,1.80
2018-05-21T01:13:09.522Z,1.73
2018-05-21T01:15:39.938Z,1.80
2018-05-21T01:18:09.436Z,1.90
2018-05-21T01:20:39.036Z,1.90
2018-05-21T01:23:08.593Z,1.50
2018-05-21T01:25:39.436Z,2.00
2018-05-21T01:28:09.769Z,1.60
2018-05-21T01:30:39.414Z,2.10
2018-05-21T01:33:08.977Z,1.97
2018-05-21T01:35:38.577Z,1.80
2018-05-21T01:38:08.166Z,1.83
2018-05-21T01:40:52.646Z,2.05
2018-05-21T01:43:22.218Z,1.83
2018-05-21T01:45:53.342Z,1.80
2018-05-21T01:48:22.940Z,1.77
2018-05-21T01:50:54.025Z,1.60
2018-05-21T01:53:24.655Z,1.67
2018-05-21T01:55:54.207Z,1.60
2018-05-21T01:58:23.828Z,2.00
2018-05-21T02:00:54.184Z,1.97
2018-05-21T02:03:23.770Z,1.80
2018-05-21T02:05:56.269Z,1.70
2018-05-21T02:08:26.462Z,2.10
2018-05-21T02:11:37.032Z,1.93
2018-05-21T02:14:06.637Z,1.85
2018-05-21T02:16:36.997Z,2.10
2018-05-21T02:19:06.566Z,1.70
2018-05-21T02:21:36.906Z,2.10
2018-05-21T02:24:07.229Z,1.87
2018-05-21T02:26:37.590Z,1.77
2018-05-21T02:29:07.929Z,1.57
2018-05-21T02:31:37.490Z,1.87
2018-05-21T02:34:07.834Z,1.80
2018-05-21T02:36:37.426Z,1.60
2018-05-21T02:39:08.555Z,1.70
2018-05-21T02:41:38.126Z,1.90
2018-05-21T02:44:08.382Z,1.70
2018-05-21T02:46:37.926Z,2.00
2018-05-21T02:49:07.505Z,1.60
2018-05-21T02:51:37.056Z,1.60
2018-05-21T02:54:08.933Z,1.30
2018-05-21T02:56:39.269Z,2.00
2018-05-21T02:59:08.902Z,1.83
2018-05-21T03:01:41.418Z,2.03
2018-05-21T03:04:11.069Z,1.90
2018-05-21T03:06:40.643Z,2.00
2018-05-21T03:09:10.232Z,1.70
2018-05-21T03:11:39.785Z,2.03
2018-05-21T03:14:09.346Z,2.10
2018-05-21T03:16:38.884Z,1.77
2018-05-21T03:19:08.516Z,1.93
2018-05-21T03:21:38.061Z,1.80
2018-05-21T03:24:21.764Z,1.77
2018-05-21T03:26:53.668Z,2.03
2018-05-21T03:29:23.229Z,1.80
2018-05-21T03:31:53.554Z,2.10
2018-05-21T03:34:23.109Z,1.67
2018-05-21T03:36:52.670Z,2.07
2018-05-21T03:39:22.254Z,1.92
2018-05-21T03:41:51.809Z,2.00
2018-05-21T03:44:22.141Z,2.20
2018-05-21T03:46:52.916Z,2.07
2018-05-21T03:49:23.248Z,1.80
2018-05-21T03:51:52.803Z,1.80
2018-05-21T03:54:22.455Z,1.95
2018-05-21T03:56:53.144Z,2.00
2018-05-21T03:59:47.039Z,1.98
2018-05-21T04:04:44.406Z,1.80
2018-05-21T04:07:27.346Z,2.00
2018-05-21T04:09:57.750Z,2.07
2018-05-21T04:12:27.330Z,1.77
2018-05-21T04:14:57.689Z,1.80
2018-05-21T04:17:28.013Z,1.73
2018-05-21T04:20:00.686Z,2.17
2018-05-21T04:22:31.039Z,1.80
2018-05-21T04:25:04.218Z,1.80
2018-05-21T04:27:33.810Z,2.13
2018-05-21T04:30:06.303Z,2.10
2018-05-21T04:32:36.656Z,2.00
2018-05-21T04:35:06.971Z,2.33
2018-05-21T04:37:36.597Z,2.07
2018-05-21T04:40:06.945Z,2.10
2018-05-21T04:42:37.297Z,1.87
2018-05-21T04:45:08.405Z,1.97
2018-05-21T04:47:38.746Z,1.87
2018-05-21T04:50:09.865Z,2.17
2018-05-21T04:52:39.437Z,2.10
2018-05-21T04:55:08.988Z,2.43
2018-05-21T04:57:38.560Z,1.87
2018-05-21T05:00:11.220Z,2.03
2018-05-21T05:02:43.809Z,2.10
2018-05-21T05:05:14.927Z,2.30
2018-05-21T05:07:45.250Z,1.90
2018-05-21T05:10:15.598Z,2.07
2018-05-21T05:12:45.179Z,2.10
2018-05-21T05:15:15.634Z,2.12
2018-05-21T05:17:45.184Z,2.20
2018-05-21T05:20:14.794Z,2.20
2018-05-21T05:22:44.329Z,2.10
2018-05-21T05:25:13.924Z,2.73
2018-05-21T05:27:45.009Z,2.17
2018-05-21T05:30:14.636Z,1.90
2018-05-21T05:32:44.921Z,2.00
2018-05-21T05:35:14.497Z,2.40
2018-05-21T05:37:44.085Z,1.80
2018-05-21T05:40:14.423Z,1.90
2018-05-21T05:42:44.761Z,1.63
2018-05-21T05:45:14.293Z,1.63
2018-05-21T05:47:43.876Z,1.67
2018-05-21T05:50:14.189Z,1.60
2018-05-21T05:52:43.796Z,1.75
2018-05-21T05:55:14.196Z,1.77
2018-05-21T05:57:44.541Z,1.70
2018-05-21T06:00:14.076Z,1.67
2018-05-21T06:02:44.494Z,1.60
2018-05-21T06:05:15.606Z,1.60
2018-05-21T06:07:49.429Z,1.60
2018-05-21T06:10:20.634Z,1.77
2018-05-21T06:12:50.189Z,2.47
2018-05-21T06:15:21.317Z,1.83
2018-05-21T06:17:50.885Z,2.12
2018-05-21T06:20:21.310Z,2.20
2018-05-21T06:22:50.876Z,2.17
2018-05-21T06:25:20.466Z,2.10
2018-05-21T06:27:50.837Z,1.80
2018-05-21T06:30:20.426Z,2.20
2018-05-21T06:32:49.964Z,1.90
2018-05-21T06:35:19.565Z,1.87
2018-05-21T06:37:49.129Z,2.13
2018-05-21T06:40:18.737Z,1.60
2018-05-21T06:42:48.326Z,1.80
2018-05-21T06:45:17.905Z,1.70
2018-05-21T06:47:48.432Z,1.90
2018-05-21T06:50:20.288Z,1.97
2018-05-21T06:52:49.854Z,1.87
2018-05-21T06:55:19.401Z,1.67
2018-05-21T06:57:49.738Z,1.87
2018-05-21T07:00:20.857Z,1.50
2018-05-21T07:02:51.950Z,1.80
2018-05-21T07:05:24.475Z,1.85
2018-05-21T07:07:57.063Z,1.85
2018-05-21T07:10:26.546Z,1.70
2018-05-21T07:12:56.913Z,1.63
2018-05-21T07:15:26.498Z,1.90
2018-05-21T07:17:56.089Z,1.73
2018-05-21T07:20:26.432Z,1.90
2018-05-21T07:22:56.849Z,1.80
2018-05-21T07:25:26.431Z,1.92
2018-05-21T07:27:56.070Z,1.80
2018-05-21T07:30:26.477Z,1.70
2018-05-21T07:33:08.646Z,2.22
2018-05-21T07:35:41.145Z,1.70
2018-05-21T07:38:10.711Z,1.93
2018-05-21T07:40:40.285Z,2.00
2018-05-21T07:43:10.669Z,2.10
2018-05-21T07:45:40.251Z,2.03
2018-05-21T07:48:10.564Z,1.70
2018-05-21T07:50:41.705Z,1.90
2018-05-21T07:53:11.797Z,1.70
2018-05-21T07:55:41.409Z,2.10
2018-05-21T07:58:11.185Z,2.05
2018-05-21T08:00:40.773Z,1.87
2018-05-21T08:03:11.081Z,1.57
2018-05-21T08:05:41.457Z,2.07
2018-05-21T08:08:11.025Z,1.70
2018-05-21T08:10:42.705Z,2.35
2018-05-21T08:13:12.297Z,2.00
2018-05-21T08:15:41.904Z,2.10
2018-05-21T08:18:11.471Z,2.20
2018-05-21T08:20:42.569Z,1.97
2018-05-21T08:23:12.154Z,2.07
2018-05-21T08:25:41.722Z,2.00
2018-05-21T08:28:12.061Z,2.00
2018-05-21T08:30:41.841Z,2.20
2018-05-21T08:33:10.633Z,2.40
2018-05-21T08:35:40.234Z,2.00
2018-05-21T08:38:09.821Z,2.35
2018-05-21T08:40:39.409Z,1.90
2018-05-21T08:43:08.982Z,2.30
2018-05-21T08:45:37.755Z,2.20
2018-05-21T08:48:07.332Z,2.03
2018-05-21T08:50:37.022Z,2.40
2018-05-21T08:53:06.620Z,2.20
2018-05-21T08:55:36.175Z,2.20
2018-05-21T08:58:05.780Z,2.33
2018-05-21T09:00:35.347Z,2.40
2018-05-21T09:03:04.888Z,2.53
2018-05-21T09:05:35.786Z,2.50
2018-05-21T09:08:05.358Z,2.40
2018-05-21T09:10:34.956Z,2.10
2018-05-21T09:13:03.797Z,2.30
2018-05-21T09:15:33.365Z,1.87
2018-05-21T09:18:02.918Z,2.20
2018-05-21T09:20:32.490Z,2.47
2018-05-21T09:23:02.118Z,2.23
2018-05-21T09:25:31.706Z,2.20
2018-05-21T09:28:00.493Z,2.23
2018-05-21T09:30:30.821Z,2.27
2018-05-21T09:33:00.385Z,2.07
2018-05-21T09:35:32.856Z,2.43
2018-05-21T09:38:05.427Z,2.27
2018-05-21T09:40:35.777Z,2.47
2018-05-21T09:43:07.694Z,2.50
2018-05-21T09:45:52.797Z,2.35
2018-05-21T09:48:22.953Z,2.30
2018-05-21T09:50:54.065Z,2.33
2018-05-21T09:53:24.424Z,2.40
2018-05-21T09:55:53.969Z,2.33
2018-05-21T09:58:23.549Z,2.43
2018-05-21T10:00:55.205Z,2.10
2018-05-21T10:03:24.798Z,2.30
2018-05-21T10:05:54.347Z,2.20
2018-05-21T10:08:23.923Z,2.10
2018-05-21T10:10:55.111Z,2.27
2018-05-21T10:13:24.697Z,2.20
2018-05-21T10:15:54.369Z,2.63
2018-05-21T10:18:25.433Z,2.42
2018-05-21T10:20:55.869Z,2.37
2018-05-21T10:23:26.209Z,2.50
2018-05-21T10:25:55.783Z,2.30
2018-05-21T10:28:26.129Z,2.70
2018-05-21T10:30:55.739Z,2.43
2018-05-21T10:33:25.305Z,2.10
2018-05-21T10:35:59.109Z,2.37
2018-05-21T10:38:31.757Z,2.30
2018-05-21T10:41:03.676Z,2.17
2018-05-21T10:43:34.816Z,2.50
2018-05-21T10:46:04.368Z,2.47
2018-05-21T10:48:34.845Z,2.23
2018-05-21T10:51:05.928Z,2.03
2018-05-21T10:53:37.828Z,2.03
2018-05-21T10:56:08.173Z,2.20
2018-05-21T10:58:37.753Z,2.37
2018-05-21T11:01:07.361Z,2.20
2018-05-21T11:03:37.063Z,2.50
2018-05-21T11:06:06.651Z,2.30
2018-05-21T11:08:36.222Z,2.33
2018-05-21T11:11:05.781Z,1.97
2018-05-21T11:13:35.415Z,2.43
2018-05-21T11:16:04.945Z,1.97
2018-05-21T11:18:34.554Z,2.25
2018-05-21T11:21:04.297Z,2.33
2018-05-21T11:23:33.874Z,2.50
2018-05-21T11:26:03.465Z,2.20
2018-05-21T11:28:33.049Z,2.40
2018-05-21T11:31:02.645Z,2.20
2018-05-21T11:33:32.210Z,2.10
2018-05-21T11:36:01.815Z,2.00
2018-05-21T11:38:31.951Z,2.00
2018-05-21T11:41:01.537Z,2.23
2018-05-21T11:43:31.095Z,2.10
2018-05-21T11:46:00.681Z,2.27
2018-05-21T11:48:30.247Z,2.23
2018-05-21T11:50:59.833Z,2.30
2018-05-21T11:53:29.411Z,2.07
2018-05-21T11:55:58.970Z,2.17
2018-05-21T11:58:28.537Z,2.27
2018-05-21T12:00:58.094Z,2.43
2018-05-21T12:03:27.649Z,1.93
2018-05-21T12:05:57.233Z,2.07
2018-05-21T12:08:26.794Z,1.80
2018-05-21T12:10:56.398Z,2.00
2018-05-21T12:13:25.988Z,2.27
2018-05-21T12:15:55.569Z,2.17
2018-05-21T12:18:25.129Z,1.90
2018-05-21T12:20:54.713Z,2.00
2018-05-21T12:23:24.270Z,2.23
2018-05-21T12:25:53.845Z,1.83
2018-05-21T12:28:23.415Z,1.80
2018-05-21T12:30:52.985Z,1.93
2018-05-21T12:33:23.341Z,2.10
2018-05-21T12:35:52.908Z,2.00
2018-05-21T12:38:22.520Z,2.00
2018-05-21T12:40:52.131Z,1.90
2018-05-21T12:43:20.929Z,2.07
2018-05-21T12:45:50.476Z,2.20
2018-05-21T12:48:20.070Z,1.67
2018-05-21T12:50:49.641Z,1.87
2018-05-21T12:53:19.194Z,1.93
2018-05-21T12:55:47.978Z,1.70
2018-05-21T12:58:19.114Z,1.90
2018-05-21T13:00:49.830Z,2.00
2018-05-21T13:03:19.424Z,1.70
2018-05-21T13:05:49.034Z,2.08
2018-05-21T13:08:20.178Z,2.00
2018-05-21T13:10:50.555Z,1.77
2018-05-21T13:13:20.925Z,1.80
2018-05-21T13:15:51.332Z,1.97
2018-05-21T13:18:20.910Z,1.80
2018-05-21T13:20:51.501Z,1.70
2018-05-21T13:23:21.120Z,1.90
2018-05-21T13:25:50.710Z,1.83
2018-05-21T13:28:20.253Z,1.93
2018-05-21T13:30:50.627Z,1.70
2018-05-21T13:33:20.953Z,1.63
2018-05-21T13:35:51.313Z,1.80
2018-05-21T13:38:21.076Z,1.70
2018-05-21T13:40:51.455Z,1.73
2018-05-21T13:43:21.801Z,1.80
2018-05-21T13:45:51.390Z,2.00
2018-05-21T13:48:21.738Z,2.00
2018-05-21T13:50:52.852Z,1.90
2018-05-21T13:53:22.464Z,1.80
2018-05-21T13:55:54.950Z,1.87
2018-05-21T13:58:27.449Z,1.80
2018-05-21T14:00:57.841Z,1.93
2018-05-21T14:03:28.175Z,1.93
2018-05-21T14:05:58.518Z,1.87
2018-05-21T14:08:28.146Z,1.63
2018-05-21T14:10:57.730Z,2.03
2018-05-21T14:13:28.169Z,1.93
2018-05-21T14:15:57.774Z,1.43
2018-05-21T14:18:28.125Z,1.87
2018-05-21T14:20:57.701Z,1.67
2018-05-21T14:23:28.806Z,1.80
2018-05-21T14:25:58.398Z,2.00
2018-05-21T14:28:28.709Z,1.70
2018-05-21T14:30:59.194Z,1.80
2018-05-21T14:33:28.730Z,1.70
2018-05-21T14:35:58.340Z,1.97
2018-05-21T14:38:27.972Z,1.90
2018-05-21T14:40:58.492Z,1.90
2018-05-21T14:43:28.895Z,1.85
2018-05-21T14:45:59.281Z,2.00
2018-05-21T14:48:31.218Z,2.00
2018-05-21T14:51:00.757Z,1.90
2018-05-21T14:53:33.317Z,2.17
2018-05-21T14:56:03.690Z,1.83
2018-05-21T14:58:35.564Z,2.15
2018-05-21T15:01:08.084Z,2.37
2018-05-21T15:03:37.657Z,2.00
2018-05-21T15:06:08.753Z,1.90
2018-05-21T15:08:39.097Z,2.00
2018-05-21T15:11:08.706Z,2.30
2018-05-21T15:13:39.098Z,2.10
2018-05-21T15:16:09.574Z,1.63
2018-05-21T15:18:39.144Z,1.80
2018-05-21T15:21:08.693Z,2.23
2018-05-21T15:23:39.094Z,1.83
2018-05-21T15:26:08.670Z,1.83
2018-05-21T15:28:39.751Z,2.00
2018-05-21T15:31:12.296Z,2.00
2018-05-21T15:33:42.046Z,1.80
2018-05-21T15:36:14.722Z,1.90
2018-05-21T15:38:44.185Z,2.08
2018-05-21T15:41:14.561Z,2.10
2018-05-21T15:43:44.919Z,2.00
2018-05-21T15:46:14.460Z,1.73
2018-05-21T15:48:44.114Z,2.20
2018-05-21T15:51:14.361Z,1.90
2018-05-21T15:53:43.977Z,2.03
2018-05-21T15:56:13.539Z,1.80
2018-05-21T15:58:44.408Z,2.10
2018-05-21T16:01:13.951Z,2.03
2018-05-21T16:03:43.534Z,1.77
2018-05-21T16:06:13.144Z,1.87
2018-05-21T16:08:42.796Z,1.90
2018-05-21T16:11:12.313Z,1.90
2018-05-21T16:13:42.669Z,1.80
2018-05-21T16:16:15.193Z,1.90
2018-05-21T16:18:57.311Z,2.08
2018-05-21T16:21:26.937Z,1.67
2018-05-21T16:23:56.665Z,2.20
2018-05-21T16:26:26.264Z,2.10
2018-05-21T16:28:56.588Z,1.87
2018-05-21T16:31:26.983Z,2.33
2018-05-21T16:33:56.541Z,2.35
2018-05-21T16:36:26.481Z,2.00
2018-05-21T16:38:56.078Z,1.90
2018-05-21T16:41:26.346Z,2.00
2018-05-21T16:43:55.877Z,1.80
2018-05-21T16:46:25.566Z,2.10
2018-05-21T16:48:55.095Z,2.20
2018-05-21T16:51:24.657Z,2.20
2018-05-21T16:53:54.232Z,2.30
2018-05-21T16:56:23.805Z,1.80
2018-05-21T16:58:53.405Z,2.10
2018-05-21T17:01:24.533Z,2.05
2018-05-21T17:03:54.107Z,2.08
2018-05-21T17:06:23.693Z,2.00
2018-05-21T17:08:54.885Z,2.60
2018-05-21T17:11:26.097Z,2.63
2018-05-21T17:13:56.445Z,2.83
2018-05-21T17:16:28.950Z,3.17
2018-05-21T17:19:00.049Z,3.23
2018-05-21T17:21:30.400Z,2.93
2018-05-21T17:24:00.076Z,2.87
2018-05-21T17:26:30.411Z,2.63
2018-05-21T17:28:59.991Z,2.87
2018-05-21T17:31:29.577Z,3.00
2018-05-21T17:33:59.122Z,2.80
2018-05-21T17:36:28.722Z,3.20
2018-05-21T17:38:58.316Z,2.63
2018-05-21T17:41:27.882Z,2.80
2018-05-21T17:43:57.479Z,2.60
2018-05-21T17:46:27.041Z,3.00
2018-05-21T17:48:56.649Z,2.80
2018-05-21T17:51:26.235Z,3.10
2018-05-21T17:53:57.294Z,2.70
2018-05-21T17:56:39.424Z,3.03
2018-05-21T17:59:09.027Z,2.70
2018-05-21T18:01:41.249Z,2.95
2018-05-21T18:04:22.663Z,2.62
2018-05-21T18:06:55.176Z,2.80
2018-05-21T18:09:25.580Z,2.47
2018-05-21T18:11:56.725Z,2.85
2018-05-21T18:14:26.390Z,4.00
2018-05-21T18:16:56.807Z,6.37
2018-05-21T18:19:27.049Z,4.77
2018-05-21T18:21:56.637Z,3.80
2018-05-21T18:24:26.203Z,3.40
2018-05-21T18:26:56.357Z,3.43
2018-05-21T18:29:25.918Z,3.08
2018-05-21T18:31:56.282Z,3.47
2018-05-21T18:34:27.379Z,3.20
2018-05-21T18:36:56.974Z,3.00
2018-05-21T18:39:26.608Z,3.15
2018-05-21T18:41:56.957Z,3.03
2018-05-21T18:44:26.550Z,2.93
2018-05-21T18:46:56.888Z,3.37
2018-05-21T18:49:26.482Z,3.13
2018-05-21T18:51:57.584Z,3.53
2018-05-21T18:54:30.113Z,3.50
2018-05-21T18:57:00.474Z,3.03
2018-05-21T18:59:32.524Z,2.70
2018-05-21T19:02:02.127Z,3.00
2018-05-21T19:04:32.500Z,3.23
2018-05-21T19:07:02.099Z,3.70
2018-05-21T19:09:31.729Z,3.20
2018-05-21T19:12:01.308Z,3.30
2018-05-21T19:14:32.569Z,4.63
2018-05-21T19:17:02.123Z,5.23
2018-05-21T19:19:31.677Z,4.23
2018-05-21T19:22:02.972Z,4.30
2018-05-21T19:24:32.540Z,3.77
2018-05-21T19:27:02.151Z,3.30
2018-05-21T19:29:31.720Z,3.33
2018-05-21T19:32:01.292Z,3.40
2018-05-21T19:34:30.851Z,4.40
2018-05-21T19:37:12.986Z,4.47
2018-05-21T19:39:42.648Z,3.83
2018-05-21T19:42:14.617Z,3.30
2018-05-21T19:44:44.202Z,4.07
2018-05-21T19:47:15.335Z,3.30
2018-05-21T19:49:44.919Z,3.23
2018-05-21T19:52:17.411Z,4.30
2018-05-21T19:54:46.984Z,3.00
2018-05-21T19:57:18.098Z,3.70
2018-05-21T19:59:48.464Z,3.00
2018-05-21T20:02:18.824Z,3.50
2018-05-21T20:04:48.456Z,3.00
2018-05-21T20:07:30.617Z,3.25
2018-05-21T20:10:02.578Z,3.17
2018-05-21T20:12:32.240Z,10.43
2018-05-21T20:15:01.849Z,4.93
2018-05-21T20:17:31.425Z,3.97
2018-05-21T20:20:01.745Z,4.00
2018-05-21T20:22:31.336Z,3.53
2018-05-21T20:25:00.893Z,3.50
2018-05-21T20:27:30.474Z,3.47
2018-05-21T20:30:01.072Z,3.20
2018-05-21T20:32:30.652Z,3.33
2018-05-21T20:35:00.243Z,3.23
2018-05-21T20:37:29.846Z,3.40
2018-05-21T20:39:59.458Z,3.33
2018-05-21T20:42:29.051Z,3.00
2018-05-21T20:44:58.639Z,3.00
2018-05-21T20:47:28.225Z,2.83
2018-05-21T20:49:57.036Z,2.60
2018-05-21T20:52:26.628Z,3.10
2018-05-21T20:54:56.209Z,2.70
2018-05-21T20:57:25.798Z,4.70
2018-05-21T20:59:56.131Z,3.60
2018-05-21T21:02:25.685Z,3.43
2018-05-21T21:04:56.790Z,3.00
2018-05-21T21:07:27.157Z,3.33
2018-05-21T21:09:59.079Z,3.17
2018-05-21T21:12:29.465Z,2.63
2018-05-21T21:14:59.033Z,2.60
2018-05-21T21:17:28.594Z,3.07
2018-05-21T21:19:58.959Z,2.70
2018-05-21T21:22:28.529Z,2.37
2018-05-21T21:24:58.117Z,2.20
2018-05-21T21:27:27.692Z,2.63
2018-05-21T21:29:57.300Z,2.60
2018-05-21T21:32:27.637Z,2.43
2018-05-21T21:34:57.987Z,2.47
2018-05-21T21:37:28.293Z,2.67
2018-05-21T21:39:58.687Z,2.00
2018-05-21T21:42:41.555Z,2.08
2018-05-21T21:45:11.916Z,2.37
2018-05-21T21:47:41.500Z,2.20
2018-05-21T21:50:11.078Z,2.20
2018-05-21T21:52:41.429Z,2.07
2018-05-21T21:55:13.343Z,2.15
2018-05-21T21:57:43.038Z,1.80
2018-05-21T22:00:15.553Z,2.27
2018-05-21T22:02:45.131Z,2.00
2018-05-21T22:05:15.663Z,2.27
2018-05-21T22:07:45.292Z,2.10
2018-05-21T22:10:15.726Z,2.00
2018-05-21T22:12:45.292Z,2.00
2018-05-21T22:15:14.892Z,2.00
2018-05-21T22:17:44.831Z,2.30
2018-05-21T22:20:28.073Z,2.00
2018-05-21T22:22:59.177Z,2.33
2018-05-21T22:25:28.785Z,2.47
2018-05-21T22:27:58.371Z,2.10
2018-05-21T22:30:27.976Z,2.20
2018-05-21T22:32:58.354Z,2.10
2018-05-21T22:35:27.982Z,2.10
2018-05-21T22:37:58.374Z,2.20
2018-05-21T22:40:27.989Z,2.53
2018-05-21T22:42:58.377Z,2.20
2018-05-21T22:45:31.129Z,2.67
2018-05-21T22:48:02.340Z,2.57
2018-05-21T22:50:31.857Z,2.23
2018-05-21T22:53:01.469Z,2.13
2018-05-21T22:55:31.818Z,2.40
2018-05-21T22:58:01.398Z,2.20
2018-05-21T23:00:30.971Z,2.50
2018-05-21T23:03:02.086Z,2.33
2018-05-21T23:05:31.681Z,2.27
2018-05-21T23:08:02.010Z,2.62
2018-05-21T23:10:32.350Z,2.67
2018-05-21T23:13:02.679Z,2.53
2018-05-21T23:15:33.825Z,2.60
2018-05-21T23:18:04.231Z,2.80
2018-05-21T23:20:34.585Z,2.70
2018-05-21T23:23:04.150Z,2.47
2018-05-21T23:25:33.742Z,2.60
2018-05-21T23:28:03.340Z,2.67
2018-05-21T23:30:33.002Z,2.30
2018-05-21T23:33:02.577Z,2.40
2018-05-21T23:35:32.140Z,2.53
2018-05-21T23:38:02.493Z,2.03
2018-05-21T23:40:33.592Z,2.50
2018-05-21T23:43:03.945Z,2.33
2018-05-21T23:45:46.097Z,2.25
2018-05-21T23:48:15.674Z,2.40
2018-05-21T23:50:45.209Z,2.70
2018-05-21T23:53:17.733Z,2.40
2018-05-21T23:55:47.278Z,2.20
2018-05-21T23:58:18.418Z,2.20
